Time;durP1;ratioP1;P1;durP2;ratioP2;P2;SDS_P1;SDS_P2;PMS_P1;PMS_P2;Temp;Humidity;BMP_temperature;BMP_pressure;BME280_temperature;BME280_humidity;BME280_pressure;Samples;Min_cycle;Max_cycle;Signal;HPM_P1;HPM_P2
2021/01/26 00:01:01;;;;;;;1.67;1.08;;;21.00;39.10;;;;;;5055985;28;20032;-47
2021/01/26 00:03:27;;;;;;;1.55;0.80;;;20.90;39.10;;;;;;5056602;28;20100;-48
2021/01/26 00:05:52;;;;;;;1.05;0.75;;;20.90;39.10;;;;;;5057782;28;20578;-46
2021/01/26 00:08:19;;;;;;;1.75;1.20;;;20.90;39.00;;;;;;5057653;28;20093;-47
2021/01/26 00:10:45;;;;;;;1.77;0.55;;;20.90;39.00;;;;;;5055496;28;20052;-48
2021/01/26 00:13:11;;;;;;;1.98;0.77;;;20.90;39.00;;;;;;5056168;28;20025;-48
2021/01/26 00:15:37;;;;;;;1.63;1.10;;;20.90;39.10;;;;;;5055579;28;20036;-46
2021/01/26 00:18:04;;;;;;;2.08;1.17;;;20.90;39.10;;;;;;5057240;28;20048;-48
2021/01/26 00:20:30;;;;;;;1.35;0.80;;;20.80;39.00;;;;;;5052456;28;20032;-46
2021/01/26 00:22:55;;;;;;;1.98;1.00;;;20.80;39.00;;;;;;5052891;28;20079;-47
2021/01/26 00:25:26;;;;;;;1.10;0.65;;;20.80;38.90;;;;;;5055905;28;20490;-46
2021/01/26 00:27:52;;;;;;;1.27;0.77;;;20.80;38.90;;;;;;5055564;28;20045;-45
2021/01/26 00:30:21;;;;;;;3.45;0.90;;;20.80;38.80;;;;;;5055809;28;20052;-47
2021/01/26 00:32:47;;;;;;;1.17;0.60;;;20.70;38.90;;;;;;5057202;28;20028;-46
2021/01/26 00:35:15;;;;;;;1.80;0.60;;;20.70;38.90;;;;;;5055615;28;20099;-45
2021/01/26 00:37:40;;;;;;;2.45;0.80;;;20.70;39.00;;;;;;5057176;28;20032;-47
2021/01/26 00:40:07;;;;;;;1.10;0.63;;;20.70;38.90;;;;;;5054656;28;20036;-47
2021/01/26 00:42:32;;;;;;;2.20;0.68;;;20.60;38.90;;;;;;5057331;28;20768;-48
2021/01/26 00:44:58;;;;;;;1.27;0.63;;;20.60;38.90;;;;;;5054543;28;20029;-47
2021/01/26 00:47:24;;;;;;;1.10;0.50;;;20.60;39.00;;;;;;5057433;28;20490;-46
2021/01/26 00:49:49;;;;;;;1.40;0.75;;;20.60;39.00;;;;;;5053226;28;20062;-48
2021/01/26 00:52:15;;;;;;;1.10;0.50;;;20.60;39.10;;;;;;5057091;28;20095;-46
2021/01/26 00:54:40;;;;;;;1.80;0.60;;;20.60;39.10;;;;;;5056337;28;20536;-49
2021/01/26 00:57:06;;;;;;;1.27;0.70;;;20.60;39.10;;;;;;5057226;28;20040;-46
2021/01/26 00:59:32;;;;;;;0.63;0.40;;;20.60;39.00;;;;;;5055980;28;20480;-46
2021/01/26 01:01:58;;;;;;;2.25;0.68;;;20.50;38.90;;;;;;5057879;28;20457;-48
2021/01/26 01:04:24;;;;;;;1.40;0.57;;;20.50;39.00;;;;;;5057696;28;20025;-46
2021/01/26 01:06:50;;;;;;;1.65;0.40;;;20.50;39.00;;;;;;5060735;28;20089;-47
2021/01/26 01:09:15;;;;;;;1.23;0.50;;;20.50;39.00;;;;;;5059210;28;20458;-47
2021/01/26 01:11:41;;;;;;;1.60;0.60;;;20.40;39.00;;;;;;5059367;28;20064;-47
2021/01/26 01:14:07;;;;;;;1.50;0.55;;;20.40;39.10;;;;;;5060264;28;20082;-47
2021/01/26 01:16:33;;;;;;;1.35;0.52;;;20.40;39.00;;;;;;5057948;28;20112;-47
2021/01/26 01:18:59;;;;;;;1.10;0.43;;;20.40;39.10;;;;;;5059014;28;20123;-48
2021/01/26 01:21:24;;;;;;;0.80;0.47;;;20.40;39.10;;;;;;5057456;28;20505;-46
2021/01/26 01:23:50;;;;;;;1.52;0.47;;;20.40;39.10;;;;;;5059235;28;20028;-46
2021/01/26 01:26:15;;;;;;;0.90;0.40;;;20.40;39.10;;;;;;5061860;28;20366;-47
2021/01/26 01:28:41;;;;;;;2.22;0.70;;;20.30;39.00;;;;;;5061526;28;20482;-48
2021/01/26 01:31:07;;;;;;;2.55;0.77;;;20.40;39.00;;;;;;5057255;28;20481;-48
2021/01/26 01:33:33;;;;;;;2.00;0.50;;;20.30;39.00;;;;;;5059573;28;20448;-48
2021/01/26 01:35:58;;;;;;;1.67;0.65;;;20.30;39.00;;;;;;5060780;28;20029;-45
2021/01/26 01:38:24;;;;;;;0.90;0.47;;;20.20;38.90;;;;;;5058326;28;20032;-45
2021/01/26 01:40:54;;;;;;;0.75;0.50;;;20.30;38.90;;;;;;5059831;28;20028;-47
2021/01/26 01:43:20;;;;;;;1.73;0.45;;;20.30;38.90;;;;;;5061642;28;20085;-49
2021/01/26 01:45:47;;;;;;;2.35;0.80;;;20.30;38.80;;;;;;5058882;28;20060;-46
2021/01/26 01:48:21;;;;;;;0.98;0.30;;;20.20;38.80;;;;;;5060054;28;20036;-47
2021/01/26 01:50:51;;;;;;;1.10;0.50;;;20.20;38.80;;;;;;5058446;28;20641;-47
2021/01/26 01:53:30;;;;;;;0.75;0.40;;;20.20;38.80;;;;;;5060301;28;20107;-47
2021/01/26 01:56:00;;;;;;;1.15;0.35;;;20.20;38.80;;;;;;5058791;28;20454;-47
2021/01/26 01:58:34;;;;;;;1.05;0.43;;;20.20;39.30;;;;;;5059640;28;20024;-47
2021/01/26 02:01:10;;;;;;;1.20;0.47;;;20.20;38.80;;;;;;5055036;28;20119;-47
2021/01/26 02:03:41;;;;;;;1.40;0.90;;;20.10;38.70;;;;;;5059492;28;20111;-46
2021/01/26 02:06:08;;;;;;;0.75;0.40;;;20.10;38.80;;;;;;5058167;28;20028;-47
2021/01/26 02:08:44;;;;;;;0.77;0.40;;;20.10;38.80;;;;;;5057280;28;20148;-48
2021/01/26 02:11:10;;;;;;;2.50;0.52;;;20.10;38.80;;;;;;5057746;28;20142;-48
2021/01/26 02:13:35;;;;;;;1.60;0.40;;;20.10;38.90;;;;;;5056025;28;20025;-48
2021/01/26 02:16:04;;;;;;;0.70;0.30;;;20.10;38.60;;;;;;5058861;28;20047;-46
2021/01/26 02:18:46;;;;;;;0.82;0.43;;;20.10;38.70;;;;;;5059727;28;20028;-46
2021/01/26 02:21:53;;;;;;;1.10;0.50;;;20.00;38.80;;;;;;5057422;28;20040;-48
2021/01/26 02:24:28;;;;;;;1.77;0.40;;;20.00;38.80;;;;;;5057700;28;20028;-48
2021/01/26 02:27:03;;;;;;;0.63;0.40;;;20.00;38.90;;;;;;5058779;28;20033;-48
2021/01/26 02:29:50;;;;;;;0.70;0.35;;;20.00;38.80;;;;;;5056808;28;20024;-47
2021/01/26 02:32:55;;;;;;;1.90;0.30;;;20.00;38.60;;;;;;5059410;28;20094;-47
2021/01/26 02:35:40;;;;;;;1.20;0.30;;;20.00;38.70;;;;;;5057345;28;20033;-46
2021/01/26 02:38:39;;;;;;;0.60;0.20;;;20.00;38.70;;;;;;5059235;28;20544;-48
2021/01/26 02:41:17;;;;;;;1.20;0.40;;;19.90;38.80;;;;;;5058670;28;20036;-45
2021/01/26 02:43:58;;;;;;;1.40;0.40;;;20.00;38.70;;;;;;5058314;28;20060;-47
2021/01/26 02:46:39;;;;;;;0.80;0.30;;;20.00;38.60;;;;;;5058048;28;20029;-46
2021/01/26 02:49:16;;;;;;;0.85;0.30;;;20.00;38.60;;;;;;5057422;28;20116;-46
2021/01/26 02:51:51;;;;;;;0.93;0.50;;;19.90;38.60;;;;;;5055251;28;20039;-47
2021/01/26 02:54:36;;;;;;;0.85;0.20;;;20.00;38.50;;;;;;5056605;28;20029;-48
2021/01/26 02:57:23;;;;;;;0.80;0.50;;;19.90;38.60;;;;;;5061382;28;20029;-47
2021/01/26 03:00:12;;;;;;;0.60;0.20;;;19.90;38.40;;;;;;5063637;28;20086;-48
2021/01/26 03:02:51;;;;;;;0.73;0.30;;;19.90;38.50;;;;;;5061318;28;20037;-48
2021/01/26 03:05:32;;;;;;;0.88;0.17;;;19.90;38.50;;;;;;5061024;28;20025;-47
2021/01/26 03:08:03;;;;;;;1.25;0.30;;;19.90;38.50;;;;;;5057741;28;20116;-45
2021/01/26 03:10:36;;;;;;;0.68;0.30;;;19.90;38.60;;;;;;5057191;28;20494;-47
2021/01/26 03:13:06;;;;;;;0.70;0.30;;;19.80;38.50;;;;;;5057809;28;20406;-47
2021/01/26 03:15:42;;;;;;;0.85;0.22;;;19.90;38.50;;;;;;5057366;28;20090;-48
2021/01/26 03:18:13;;;;;;;0.70;0.22;;;19.80;38.40;;;;;;5058256;28;20039;-47
2021/01/26 03:20:43;;;;;;;0.80;0.35;;;19.80;38.50;;;;;;5055100;28;20398;-48
2021/01/26 03:23:16;;;;;;;0.57;0.20;;;19.80;38.60;;;;;;5058228;28;20028;-48
2021/01/26 03:25:47;;;;;;;1.02;0.40;;;19.80;38.50;;;;;;5055710;28;20021;-49
2021/01/26 03:28:14;;;;;;;0.70;0.20;;;19.70;38.50;;;;;;5058639;28;20036;-48
2021/01/26 03:30:44;;;;;;;1.10;0.40;;;19.70;38.60;;;;;;5056319;28;20074;-47
2021/01/26 03:33:15;;;;;;;0.95;0.20;;;19.70;38.60;;;;;;5059280;28;20119;-47
2021/01/26 03:35:43;;;;;;;;;;;19.70;38.50;;;;;;5057564;28;20456;-47
2021/01/26 03:38:18;;;;;;;1.05;0.20;;;19.70;38.50;;;;;;5055447;28;20396;-47
2021/01/26 03:40:44;;;;;;;1.80;0.30;;;19.70;38.50;;;;;;5056383;28;20033;-48
2021/01/26 03:43:09;;;;;;;0.80;0.20;;;19.70;38.60;;;;;;5055700;28;20044;-48
2021/01/26 03:45:35;;;;;;;2.05;0.20;;;19.70;38.50;;;;;;5057050;28;20494;-47
2021/01/26 03:48:28;;;;;;;1.45;0.20;;;19.70;38.40;;;;;;5057039;28;20190;-46
2021/01/26 03:51:09;;;;;;;1.35;0.20;;;19.70;38.40;;;;;;5052295;28;20029;-47
2021/01/26 03:53:48;;;;;;;0.50;0.20;;;19.70;38.30;;;;;;5057013;28;20040;-47
2021/01/26 03:56:38;;;;;;;0.63;0.10;;;19.70;38.20;;;;;;5056216;28;20021;-47
2021/01/26 03:59:09;;;;;;;0.43;0.10;;;19.70;38.20;;;;;;5059152;28;20032;-48
2021/01/26 04:01:42;;;;;;;1.70;0.35;;;19.70;38.20;;;;;;5052861;28;20037;-48
2021/01/26 04:04:26;;;;;;;0.82;0.20;;;19.70;38.30;;;;;;5056953;28;20028;-47
2021/01/26 04:06:56;;;;;;;0.93;0.20;;;19.70;38.30;;;;;;5052046;28;20021;-48
2021/01/26 04:09:27;;;;;;;0.60;0.15;;;19.60;38.20;;;;;;5058867;28;20047;-47
2021/01/26 04:12:17;;;;;;;1.35;0.28;;;19.60;38.20;;;;;;5052934;28;20529;-48
2021/01/26 04:14:55;;;;;;;1.40;0.20;;;19.60;38.20;;;;;;5057573;28;20112;-48
2021/01/26 04:17:25;;;;;;;1.00;0.10;;;19.60;38.20;;;;;;5055418;28;20374;-48
2021/01/26 04:20:07;;;;;;;2.25;0.20;;;19.60;38.30;;;;;;5071125;28;20098;-48
2021/01/26 04:22:34;;;;;;;2.55;0.30;;;19.60;38.20;;;;;;5056143;28;20021;-49
2021/01/26 04:25:00;;;;;;;0.50;0.20;;;19.60;38.20;;;;;;5053877;28;20494;-48
2021/01/26 04:27:26;;;;;;;1.02;0.10;;;19.60;38.20;;;;;;5056314;28;20055;-47
2021/01/26 04:29:52;;;;;;;1.27;0.50;;;19.60;38.10;;;;;;5054072;28;20048;-46
2021/01/26 04:32:23;;;;;;;2.38;0.20;;;19.50;38.10;;;;;;5053428;28;20064;-47
2021/01/26 04:34:49;;;;;;;1.02;0.20;;;19.50;38.00;;;;;;5057456;28;20497;-47
2021/01/26 04:37:14;;;;;;;0.55;0.30;;;19.50;38.00;;;;;;5058856;28;20105;-48
2021/01/26 04:39:40;;;;;;;2.33;0.20;;;19.50;38.00;;;;;;5058460;28;20197;-47
2021/01/26 04:42:14;;;;;;;0.77;0.20;;;19.50;38.00;;;;;;5061260;28;20025;-47
2021/01/26 04:44:43;;;;;;;0.57;0.20;;;19.50;38.00;;;;;;5060733;28;20370;-50
2021/01/26 04:47:32;;;;;;;1.13;0.20;;;19.50;38.10;;;;;;5062584;28;20024;-48
2021/01/26 04:50:16;;;;;;;0.70;0.10;;;19.50;38.10;;;;;;5056186;28;20036;-47
2021/01/26 04:52:47;;;;;;;1.52;0.15;;;19.50;38.00;;;;;;5058625;28;20081;-49
2021/01/26 04:55:25;;;;;;;1.23;0.25;;;19.40;38.20;;;;;;5059175;28;20032;-49
2021/01/26 04:58:20;;;;;;;0.68;0.10;;;19.40;38.10;;;;;;5059201;28;20032;-46
2021/01/26 05:01:27;;;;;;;0.47;0.17;;;19.40;37.90;;;;;;5056703;28;20047;-46
2021/01/26 05:04:05;;;;;;;1.15;0.10;;;19.40;38.10;;;;;;5060719;28;20028;-47
2021/01/26 05:06:40;;;;;;;0.50;0.20;;;19.40;37.90;;;;;;5042546;28;20475;-47
2021/01/26 05:09:14;;;;;;;0.40;0.10;;;19.40;38.00;;;;;;5041154;28;20048;-50
2021/01/26 05:11:43;;;;;;;1.17;0.30;;;19.40;38.00;;;;;;5061306;28;20041;-48
2021/01/26 05:14:20;;;;;;;0.68;0.15;;;19.40;38.20;;;;;;5058601;28;20028;-48
2021/01/26 05:16:59;;;;;;;0.73;0.10;;;19.40;38.10;;;;;;5061182;28;20082;-47
2021/01/26 05:19:45;;;;;;;1.17;0.20;;;19.40;38.10;;;;;;5058415;28;20088;-46
2021/01/26 05:22:35;;;;;;;0.82;0.15;;;19.40;38.10;;;;;;5059022;28;20380;-47
2021/01/26 05:25:10;;;;;;;0.40;0.13;;;19.30;38.10;;;;;;5059748;28;20197;-46
2021/01/26 05:27:36;;;;;;;0.50;0.10;;;19.30;38.00;;;;;;5057621;28;20029;-47
2021/01/26 05:30:08;;;;;;;1.27;0.35;;;19.30;38.10;;;;;;5056901;28;20036;-48
2021/01/26 05:32:35;;;;;;;0.70;0.20;;;19.30;38.00;;;;;;5060663;28;20029;-49
2021/01/26 05:35:02;;;;;;;0.40;0.10;;;19.30;38.10;;;;;;5056540;28;20033;-48
2021/01/26 05:37:28;;;;;;;1.25;0.20;;;19.30;38.10;;;;;;5057774;28;20031;-48
2021/01/26 05:39:59;;;;;;;0.60;0.10;;;19.30;38.10;;;;;;5057045;28;20442;-48
2021/01/26 05:42:25;;;;;;;1.63;0.20;;;19.30;38.10;;;;;;5058829;28;20025;-48
2021/01/26 05:45:07;;;;;;;0.85;0.20;;;19.30;38.10;;;;;;5058384;28;20417;-47
2021/01/26 05:47:34;;;;;;;0.65;0.10;;;19.30;38.00;;;;;;5059722;28;20028;-46
2021/01/26 05:50:01;;;;;;;0.60;0.13;;;19.30;38.10;;;;;;5057191;28;20036;-46
2021/01/26 05:52:36;;;;;;;1.27;0.30;;;19.30;38.10;;;;;;5058474;28;20036;-49
2021/01/26 05:55:12;;;;;;;0.65;0.20;;;19.30;38.10;;;;;;5058660;28;20055;-47
2021/01/26 05:57:38;;;;;;;0.65;0.15;;;19.20;38.20;;;;;;5057488;28;20032;-47
2021/01/26 06:00:19;;;;;;;1.02;0.10;;;19.20;38.10;;;;;;5058285;28;20440;-46
2021/01/26 06:02:46;;;;;;;0.77;0.10;;;19.30;38.20;;;;;;5060059;28;20024;-46
2021/01/26 06:05:21;;;;;;;1.48;0.13;;;19.20;38.00;;;;;;5057088;28;20032;-48
2021/01/26 06:08:05;;;;;;;0.77;0.10;;;19.30;38.00;;;;;;5057569;28;20028;-45
2021/01/26 06:10:32;;;;;;;1.02;0.10;;;19.20;38.00;;;;;;5057128;28;20115;-46
2021/01/26 06:12:58;;;;;;;1.00;0.17;;;19.20;37.90;;;;;;5059655;28;20033;-47
2021/01/26 06:15:29;;;;;;;0.47;0.08;;;19.20;38.00;;;;;;5055687;28;20037;-46
2021/01/26 06:18:14;;;;;;;0.45;0.10;;;19.20;38.10;;;;;;5058555;28;20131;-47
2021/01/26 06:20:40;;;;;;;0.38;0.10;;;19.20;37.90;;;;;;5056407;28;20024;-47
2021/01/26 06:23:18;;;;;;;1.02;0.20;;;19.20;38.00;;;;;;5060209;28;20089;-48
2021/01/26 06:25:49;;;;;;;0.30;0.10;;;19.20;38.60;;;;;;5058551;28;20021;-47
2021/01/26 06:28:20;;;;;;;0.90;0.10;;;19.20;38.30;;;;;;5057337;28;20093;-47
2021/01/26 06:30:54;;;;;;;0.30;0.17;;;19.30;38.40;;;;;;5054853;28;20036;-47
2021/01/26 06:33:35;;;;;;;0.30;0.10;;;19.40;38.10;;;;;;5060759;28;20865;-47
2021/01/26 06:36:36;;;;;;;0.60;0.20;;;19.60;37.80;;;;;;5057621;28;20115;-47
2021/01/26 06:39:17;;;;;;;0.40;0.10;;;19.80;37.60;;;;;;5057101;28;20090;-47
2021/01/26 06:42:14;;;;;;;0.43;0.10;;;19.90;37.40;;;;;;5057475;28;20017;-47
2021/01/26 06:45:28;;;;;;;1.40;0.10;;;20.00;37.30;;;;;;5057789;28;20017;-47
2021/01/26 06:48:18;;;;;;;0.35;0.10;;;20.10;37.20;;;;;;5047286;28;20044;-47
2021/01/26 06:50:46;;;;;;;1.48;0.20;;;20.10;37.10;;;;;;5055185;28;20028;-46
2021/01/26 06:53:41;;;;;;;0.30;0.10;;;20.20;37.10;;;;;;5057862;28;20033;-48
2021/01/26 06:56:20;;;;;;;0.38;0.13;;;20.10;37.40;;;;;;5058305;28;20872;-45
2021/01/26 06:59:02;;;;;;;0.30;0.10;;;20.10;37.60;;;;;;5059448;28;20593;-48
2021/01/26 07:01:50;;;;;;;1.42;0.10;;;20.20;37.60;;;;;;5057041;28;20189;-46
2021/01/26 07:04:31;;;;;;;1.00;0.10;;;20.20;37.50;;;;;;5059331;28;20032;-47
2021/01/26 07:07:21;;;;;;;0.70;0.10;;;20.20;37.50;;;;;;5056619;28;20108;-52
2021/01/26 07:10:01;;;;;;;0.43;0.10;;;20.20;37.50;;;;;;5055438;28;20055;-48
2021/01/26 07:12:48;;;;;;;0.70;0.10;;;20.20;37.50;;;;;;5057749;28;20056;-49
2021/01/26 07:15:29;;;;;;;0.63;0.10;;;20.30;37.40;;;;;;5056029;28;20063;-47
2021/01/26 07:18:09;;;;;;;1.10;0.10;;;20.30;37.20;;;;;;5057787;28;20037;-48
2021/01/26 07:20:58;;;;;;;0.73;0.20;;;20.40;37.10;;;;;;5056424;28;20045;-48
2021/01/26 07:23:35;;;;;;;1.75;0.10;;;20.50;37.10;;;;;;5074831;22;20041;-44
2021/01/26 07:26:36;;;;;;;0.80;0.10;;;20.50;37.10;;;;;;5046747;28;20044;-44
2021/01/26 07:29:42;;;;;;;1.40;0.28;;;20.50;37.10;;;;;;5048576;28;20116;-43
2021/01/26 07:32:17;;;;;;;1.13;0.10;;;20.60;37.00;;;;;;5050140;28;20036;-44
2021/01/26 07:34:49;;;;;;;1.02;0.10;;;20.60;36.90;;;;;;5044260;28;20029;-42
2021/01/26 07:37:51;;;;;;;1.25;0.10;;;20.70;36.90;;;;;;5041614;28;20028;-45
2021/01/26 07:40:33;;;;;;;2.15;0.10;;;20.70;36.90;;;;;;5034188;28;20155;-45
2021/01/26 07:43:20;;;;;;;0.68;0.10;;;20.70;36.80;;;;;;5043206;28;20029;-44
2021/01/26 07:46:13;;;;;;;1.23;0.10;;;20.70;36.90;;;;;;5037801;28;20021;-47
2021/01/26 07:49:09;;;;;;;1.40;0.10;;;20.80;37.00;;;;;;5041985;28;20119;-46
2021/01/26 07:51:47;;;;;;;2.45;0.10;;;20.90;37.00;;;;;;5042846;28;20035;-51
2021/01/26 07:54:29;;;;;;;1.10;0.20;;;21.00;37.00;;;;;;5039453;28;20143;-53
2021/01/26 07:56:59;;;;;;;0.45;0.03;;;21.00;37.00;;;;;;5042048;28;20089;-51
2021/01/26 07:59:30;;;;;;;1.27;0.10;;;21.10;37.00;;;;;;5039178;28;20057;-49
2021/01/26 08:02:01;;;;;;;2.60;0.17;;;21.10;37.00;;;;;;5039659;28;20036;-52
2021/01/26 08:04:37;;;;;;;1.27;0.17;;;21.20;37.10;;;;;;5038575;28;20448;-47
2021/01/26 08:07:03;;;;;;;0.60;0.10;;;21.20;37.00;;;;;;5040432;28;20034;-47
2021/01/26 08:09:41;;;;;;;0.73;0.10;;;21.20;37.10;;;;;;5041478;28;20132;-51
2021/01/26 08:12:08;;;;;;;2.45;0.20;;;21.30;37.30;;;;;;5041876;28;20033;-47
2021/01/26 08:14:45;;;;;;;0.77;0.30;;;21.20;37.30;;;;;;5038225;28;20032;-49
2021/01/26 08:17:13;;;;;;;0.63;0.10;;;21.20;37.60;;;;;;5040751;28;20124;-46
2021/01/26 08:19:46;;;;;;;1.10;0.30;;;21.20;37.60;;;;;;5037750;28;20128;-49
2021/01/26 08:22:31;;;;;;;1.10;0.10;;;21.20;37.70;;;;;;5039630;28;20038;-51
2021/01/26 08:25:01;;;;;;;2.17;0.15;;;21.10;37.70;;;;;;5038675;28;20025;-50
2021/01/26 08:27:38;;;;;;;1.73;0.20;;;21.10;37.90;;;;;;5038528;28;20025;-44
2021/01/26 08:30:30;;;;;;;1.02;0.20;;;21.10;38.00;;;;;;5039213;28;20486;-44
2021/01/26 08:33:11;;;;;;;1.10;0.10;;;20.90;38.10;;;;;;5018357;28;20045;-53
2021/01/26 08:35:48;;;;;;;0.95;0.15;;;20.90;38.20;;;;;;5036604;28;20037;-53
2021/01/26 08:38:49;;;;;;;0.95;0.30;;;20.90;38.10;;;;;;5040142;28;20033;-53
2021/01/26 08:41:35;;;;;;;2.45;0.20;;;20.90;38.20;;;;;;5036718;28;20038;-51
2021/01/26 08:44:02;;;;;;;0.63;0.13;;;21.00;38.40;;;;;;5039022;28;20033;-53
2021/01/26 08:46:36;;;;;;;1.35;0.22;;;21.00;38.30;;;;;;5043394;28;20176;-53
2021/01/26 08:49:16;;;;;;;0.50;0.10;;;21.00;38.30;;;;;;5056757;28;20037;-52
2021/01/26 08:51:42;;;;;;;0.90;0.10;;;21.00;38.30;;;;;;5042718;28;20078;-50
2021/01/26 08:54:08;;;;;;;3.35;0.32;;;21.00;38.20;;;;;;5043101;28;20443;-49
2021/01/26 08:56:36;;;;;;;1.88;0.20;;;20.90;38.30;;;;;;5042944;28;20029;-50
2021/01/26 08:59:06;;;;;;;0.57;0.10;;;20.90;38.50;;;;;;5038845;28;20486;-51
2021/01/26 09:01:34;;;;;;;0.77;0.20;;;20.90;38.50;;;;;;5042613;28;20025;-50
2021/01/26 09:04:12;;;;;;;2.60;0.32;;;21.00;38.60;;;;;;5039980;28;20029;-49
2021/01/26 09:06:42;;;;;;;1.88;0.10;;;21.00;38.40;;;;;;5041879;28;20065;-47
2021/01/26 09:09:31;;;;;;;1.02;0.20;;;21.10;38.30;;;;;;5040488;28;20041;-49
2021/01/26 09:11:59;;;;;;;3.55;0.20;;;21.20;38.10;;;;;;5028960;28;20179;-48
2021/01/26 09:14:28;;;;;;;2.05;0.30;;;21.30;37.90;;;;;;5035784;28;20055;-51
2021/01/26 09:17:00;;;;;;;0.98;0.25;;;21.40;37.80;;;;;;5041579;28;20029;-51
2021/01/26 09:19:32;;;;;;;3.22;0.20;;;21.40;37.70;;;;;;5039259;28;20098;-53
2021/01/26 09:22:05;;;;;;;0.50;0.20;;;21.50;37.60;;;;;;5040892;28;20049;-49
2021/01/26 09:24:32;;;;;;;1.55;0.15;;;21.60;37.60;;;;;;5044591;28;20398;-46
2021/01/26 09:27:21;;;;;;;0.70;0.30;;;21.60;37.60;;;;;;5043234;28;20120;-49
2021/01/26 09:30:00;;;;;;;2.03;0.40;;;21.60;37.70;;;;;;5058781;28;20033;-48
2021/01/26 09:32:25;;;;;;;2.05;0.32;;;21.70;37.60;;;;;;5044663;28;20112;-47
2021/01/26 09:34:51;;;;;;;1.77;0.20;;;21.70;37.60;;;;;;5043508;28;20116;-48
2021/01/26 09:37:24;;;;;;;1.92;0.40;;;21.70;37.70;;;;;;5044579;28;20049;-49
2021/01/26 09:39:50;;;;;;;1.10;0.20;;;21.70;37.80;;;;;;5043645;28;20044;-50
2021/01/26 09:42:21;;;;;;;1.45;0.20;;;21.70;37.80;;;;;;5041984;28;20029;-45
2021/01/26 09:44:58;;;;;;;1.25;0.35;;;21.80;37.60;;;;;;5042665;28;20028;-49
2021/01/26 09:47:24;;;;;;;1.35;0.43;;;21.80;37.80;;;;;;5042826;28;20040;-46
2021/01/26 09:49:58;;;;;;;1.42;0.20;;;21.90;37.70;;;;;;5041723;28;20029;-44
2021/01/26 09:52:23;;;;;;;0.98;0.20;;;21.90;37.70;;;;;;5041064;28;20394;-47
2021/01/26 09:55:05;;;;;;;1.05;0.15;;;21.90;37.70;;;;;;5044298;28;20037;-46
2021/01/26 09:57:31;;;;;;;1.50;0.25;;;21.80;37.80;;;;;;5044026;28;20041;-46
2021/01/26 09:59:57;;;;;;;1.95;0.22;;;21.70;37.70;;;;;;5043333;28;20470;-44
2021/01/26 10:02:24;;;;;;;2.92;0.45;;;21.70;37.90;;;;;;5040838;28;20051;-48
2021/01/26 10:04:50;;;;;;;0.75;0.32;;;21.70;38.00;;;;;;5038975;28;20577;-41
2021/01/26 10:07:18;;;;;;;0.98;0.20;;;21.70;38.00;;;;;;5042192;28;20699;-48
2021/01/26 10:09:43;;;;;;;0.68;0.20;;;21.80;38.10;;;;;;5041594;28;20025;-50
2021/01/26 10:12:36;;;;;;;2.05;0.20;;;21.70;38.10;;;;;;5038454;28;20033;-51
2021/01/26 10:15:09;;;;;;;4.43;0.30;;;21.70;38.30;;;;;;5042304;28;20736;-51
2021/01/26 10:18:13;;;;;;;1.65;0.20;;;21.70;38.50;;;;;;5042674;28;20040;-47
2021/01/26 10:20:45;;;;;;;4.25;0.50;;;21.70;38.70;;;;;;5039739;28;20521;-48
2021/01/26 10:23:25;;;;;;;1.17;0.20;;;21.70;38.80;;;;;;5044066;28;20488;-47
2021/01/26 10:25:51;;;;;;;1.42;0.30;;;21.60;38.70;;;;;;5042838;28;20026;-49
2021/01/26 10:28:27;;;;;;;2.00;0.35;;;21.60;38.90;;;;;;5040853;28;20144;-48
2021/01/26 10:30:55;;;;;;;1.20;0.20;;;21.60;39.00;;;;;;5042180;28;20059;-46
2021/01/26 10:33:34;;;;;;;7.13;0.47;;;21.50;39.00;;;;;;5040821;28;20221;-50
2021/01/26 10:36:18;;;;;;;1.70;0.43;;;21.50;39.00;;;;;;5040671;28;20029;-47
2021/01/26 10:38:45;;;;;;;0.40;0.20;;;21.50;39.10;;;;;;5041466;28;20033;-51
2021/01/26 10:41:33;;;;;;;0.47;0.10;;;21.40;39.00;;;;;;5044927;28;20033;-48
2021/01/26 10:44:06;;;;;;;1.55;0.10;;;21.40;39.40;;;;;;5042353;28;20031;-49
2021/01/26 10:46:35;;;;;;;0.77;0.20;;;21.40;39.20;;;;;;5039114;28;20036;-47
2021/01/26 10:49:34;;;;;;;1.00;0.30;;;21.40;39.30;;;;;;5043155;28;20037;-50
2021/01/26 10:52:02;;;;;;;1.08;0.20;;;21.40;39.40;;;;;;5041394;28;20037;-46
2021/01/26 10:54:28;;;;;;;0.80;0.20;;;21.40;39.50;;;;;;5041688;28;20498;-50
2021/01/26 10:56:54;;;;;;;4.50;0.20;;;21.40;40.00;;;;;;5041543;28;20029;-49
2021/01/26 10:59:20;;;;;;;0.40;0.10;;;21.40;39.50;;;;;;5041369;28;20025;-52
2021/01/26 11:01:46;;;;;;;1.67;0.20;;;21.30;39.50;;;;;;5043596;28;20371;-48
2021/01/26 11:04:13;;;;;;;0.50;0.17;;;21.30;39.60;;;;;;5043165;28;20037;-46
2021/01/26 11:06:38;;;;;;;0.55;0.20;;;21.20;39.50;;;;;;5042461;28;20524;-47
2021/01/26 11:09:06;;;;;;;3.78;0.15;;;21.30;39.70;;;;;;5059803;28;20091;-46
2021/01/26 11:11:32;;;;;;;0.82;0.20;;;21.40;39.70;;;;;;5039211;28;20025;-45
2021/01/26 11:13:59;;;;;;;1.08;0.20;;;21.40;39.40;;;;;;5043085;28;20156;-45
2021/01/26 11:16:25;;;;;;;1.15;0.38;;;21.50;39.20;;;;;;5040913;28;20033;-49
2021/01/26 11:18:53;;;;;;;1.42;0.30;;;21.70;39.10;;;;;;5041842;28;20032;-51
2021/01/26 11:21:19;;;;;;;0.45;0.10;;;21.80;38.90;;;;;;5041213;28;20084;-49
2021/01/26 11:23:45;;;;;;;1.30;0.30;;;21.90;38.70;;;;;;5042950;28;20032;-50
2021/01/26 11:26:16;;;;;;;0.75;0.10;;;21.90;38.60;;;;;;5041916;28;20033;-52
2021/01/26 11:28:42;;;;;;;0.70;0.20;;;22.00;38.60;;;;;;5042386;28;20043;-48
2021/01/26 11:31:08;;;;;;;0.50;0.15;;;22.10;38.60;;;;;;5041683;28;20025;-49
2021/01/26 11:33:35;;;;;;;1.60;0.20;;;22.10;38.60;;;;;;5051037;28;20033;-47
2021/01/26 11:36:03;;;;;;;0.85;0.10;;;22.10;38.60;;;;;;5057032;28;20059;-45
2021/01/26 11:38:29;;;;;;;1.00;0.22;;;22.00;38.50;;;;;;5058382;28;20052;-45
2021/01/26 11:40:56;;;;;;;2.50;0.25;;;22.00;38.50;;;;;;5054539;28;20055;-45
2021/01/26 11:43:21;;;;;;;0.30;0.13;;;22.00;38.50;;;;;;5057449;28;20250;-45
2021/01/26 11:45:47;;;;;;;0.63;0.10;;;22.00;38.50;;;;;;5054041;28;20025;-47
2021/01/26 11:48:13;;;;;;;1.17;0.20;;;22.00;38.50;;;;;;5057155;28;20037;-44
2021/01/26 11:50:39;;;;;;;0.60;0.20;;;22.00;38.40;;;;;;5055162;28;20022;-44
2021/01/26 11:53:09;;;;;;;2.00;0.30;;;22.00;38.30;;;;;;5050702;28;20037;-45
2021/01/26 11:55:35;;;;;;;0.98;0.20;;;22.00;38.20;;;;;;5040570;28;20538;-45
2021/01/26 11:58:01;;;;;;;0.40;0.10;;;22.10;38.10;;;;;;5041580;28;20128;-44
2021/01/26 12:00:30;;;;;;;0.52;0.13;;;22.10;38.10;;;;;;5040252;28;20037;-45
2021/01/26 12:02:56;;;;;;;1.02;0.30;;;22.20;38.10;;;;;;5047113;28;20020;-43
2021/01/26 12:05:26;;;;;;;0.40;0.15;;;22.10;38.10;;;;;;5039230;28;20059;-45
2021/01/26 12:07:52;;;;;;;1.35;0.20;;;22.10;38.10;;;;;;5041717;28;20526;-44
2021/01/26 12:10:19;;;;;;;1.25;0.30;;;22.10;38.10;;;;;;5040517;28;20104;-45
2021/01/26 12:12:44;;;;;;;0.60;0.20;;;22.00;38.20;;;;;;5039539;28;20028;-46
2021/01/26 12:15:15;;;;;;;1.40;0.30;;;22.00;38.40;;;;;;5029755;28;20040;-46
2021/01/26 12:17:41;;;;;;;1.47;0.23;;;22.00;38.50;;;;;;5040651;28;20490;-52
2021/01/26 12:20:07;;;;;;;2.38;0.20;;;22.10;38.60;;;;;;5040267;28;20284;-49
2021/01/26 12:22:33;;;;;;;1.20;0.28;;;22.10;38.70;;;;;;5055475;28;20584;-47
2021/01/26 12:24:58;;;;;;;1.58;0.20;;;22.10;38.80;;;;;;5041833;28;20084;-50
2021/01/26 12:27:24;;;;;;;0.80;0.20;;;22.10;39.20;;;;;;5041657;28;20022;-50
2021/01/26 12:29:49;;;;;;;0.57;0.10;;;22.10;39.10;;;;;;5040230;28;20089;-52
2021/01/26 12:32:15;;;;;;;1.52;0.20;;;22.10;39.30;;;;;;5040510;28;20105;-52
2021/01/26 12:34:40;;;;;;;0.65;0.25;;;22.00;39.30;;;;;;5038542;28;20041;-48
2021/01/26 12:37:07;;;;;;;0.60;0.13;;;22.00;39.40;;;;;;5037279;28;20524;-48
2021/01/26 12:39:33;;;;;;;0.90;0.20;;;22.00;39.80;;;;;;5039073;28;20112;-47
2021/01/26 12:41:58;;;;;;;0.47;0.17;;;21.90;39.50;;;;;;5040638;28;20112;-47
2021/01/26 12:44:24;;;;;;;0.63;0.20;;;21.80;39.50;;;;;;5042043;28;20083;-48
2021/01/26 12:46:50;;;;;;;0.50;0.20;;;21.80;39.50;;;;;;5039006;28;20048;-51
2021/01/26 12:49:16;;;;;;;0.95;0.30;;;21.70;39.60;;;;;;5038407;28;20037;-47
2021/01/26 12:51:42;;;;;;;1.70;0.22;;;21.80;39.60;;;;;;5038908;28;20698;-46
2021/01/26 12:54:08;;;;;;;5.93;0.30;;;21.80;39.70;;;;;;5035732;28;20095;-45
2021/01/26 12:56:33;;;;;;;1.00;0.20;;;21.80;39.70;;;;;;5041664;28;20501;-46
2021/01/26 12:58:59;;;;;;;3.15;0.35;;;21.80;39.90;;;;;;5044928;28;20029;-44
2021/01/26 13:01:26;;;;;;;0.70;0.20;;;21.70;40.00;;;;;;5043528;28;20490;-47
2021/01/26 13:03:51;;;;;;;0.73;0.20;;;21.70;40.00;;;;;;5043099;28;20540;-46
2021/01/26 13:06:17;;;;;;;1.50;0.30;;;21.70;40.10;;;;;;5059929;28;20071;-46
2021/01/26 13:08:43;;;;;;;6.82;0.55;;;21.70;40.10;;;;;;5042967;28;20081;-47
2021/01/26 13:11:09;;;;;;;0.80;0.28;;;21.60;40.00;;;;;;5043412;28;20402;-46
2021/01/26 13:13:34;;;;;;;0.50;0.20;;;21.60;40.20;;;;;;5044426;28;20110;-47
2021/01/26 13:16:00;;;;;;;2.08;0.47;;;21.60;40.20;;;;;;5041822;28;20060;-44
2021/01/26 13:18:25;;;;;;;0.70;0.30;;;21.60;40.30;;;;;;5043710;28;20033;-46